Time;durP1;ratioP1;P1;durP2;ratioP2;P2;SDS_P1;SDS_P2;PMS_P1;PMS_P2;Temp;Humidity;BMP_temperature;BMP_pressure;BME280_temperature;BME280_humidity;BME280_pressure;Samples;Min_cycle;Max_cycle;Signal;HPM_P1;HPM_P2
2022/02/25 00:02:00;;;;;;;;;;;22.80;30.60;;;;;;5086127;28;20064;-68
2022/02/25 00:04:27;;;;;;;;;;;22.80;30.70;;;;;;5086805;28;20140;-69
2022/02/25 00:06:54;;;;;;;;;;;22.80;30.60;;;;;;5086260;28;19924;-68
2022/02/25 00:09:21;;;;;;;;;;;22.80;30.60;;;;;;5086705;28;19978;-68
2022/02/25 00:11:48;;;;;;;;;;;22.80;30.60;;;;;;5087495;28;19931;-68
2022/02/25 00:14:15;;;;;;;;;;;22.80;30.60;;;;;;5087151;28;20426;-68
2022/02/25 00:16:45;;;;;;;;;;;22.80;30.60;;;;;;5086868;28;19924;-68
2022/02/25 00:19:12;;;;;;;;;;;22.80;30.60;;;;;;5086827;28;20328;-68
2022/02/25 00:21:41;;;;;;;;;;;22.80;30.60;;;;;;5085483;28;21269;-68
2022/02/25 00:24:08;;;;;;;;;;;22.80;30.60;;;;;;5087711;28;19931;-69
2022/02/25 00:26:35;;;;;;;;;;;22.80;30.60;;;;;;5089075;28;19924;-68
2022/02/25 00:29:03;;;;;;;;;;;22.80;30.60;;;;;;5090891;28;19925;-68
2022/02/25 00:31:31;;;;;;;;;;;22.80;30.60;;;;;;5089679;28;19939;-68
2022/02/25 00:33:58;;;;;;;;;;;22.80;30.60;;;;;;5091259;28;20005;-68
2022/02/25 00:36:25;;;;;;;;;;;22.80;30.60;;;;;;5089495;28;20370;-68
2022/02/25 00:38:53;;;;;;;;;;;22.80;30.60;;;;;;5090759;28;19977;-68
2022/02/25 00:41:20;;;;;;;;;;;22.80;30.60;;;;;;5090557;28;20385;-68
2022/02/25 00:43:50;;;;;;;;;;;22.80;30.60;;;;;;5090819;28;19931;-68
2022/02/25 00:46:17;;;;;;;;;;;22.70;30.60;;;;;;5090298;28;19923;-68
2022/02/25 00:48:44;;;;;;;;;;;22.80;30.70;;;;;;5089665;28;20156;-68
2022/02/25 00:51:12;;;;;;;;;;;22.70;30.60;;;;;;5089314;28;20407;-68
2022/02/25 00:53:48;;;;;;;;;;;22.80;30.70;;;;;;5090667;28;19997;-68
2022/02/25 00:56:15;;;;;;;;;;;22.70;30.70;;;;;;5090378;28;19924;-68
2022/02/25 00:58:42;;;;;;;;;;;22.70;30.70;;;;;;5090459;28;20056;-68
2022/02/25 01:01:09;;;;;;;;;;;22.70;30.70;;;;;;5088470;28;20393;-67
2022/02/25 01:03:36;;;;;;;;;;;22.70;30.60;;;;;;5089989;28;19924;-67
2022/02/25 01:06:04;;;;;;;;;;;22.70;30.70;;;;;;5088927;28;19931;-67
2022/02/25 01:08:31;;;;;;;;;;;22.70;30.70;;;;;;5089908;28;20002;-67
2022/02/25 01:10:58;;;;;;;;;;;22.70;30.70;;;;;;5089334;28;20152;-67
2022/02/25 01:13:25;;;;;;;;;;;22.70;30.70;;;;;;5089947;28;20373;-68
2022/02/25 01:15:52;;;;;;;;;;;22.70;30.70;;;;;;5089849;28;19931;-67
2022/02/25 01:18:22;;;;;;;;;;;22.70;30.70;;;;;;5088865;28;19971;-68
2022/02/25 01:20:49;;;;;;;;;;;22.70;30.70;;;;;;5090549;28;19924;-67
2022/02/25 01:23:16;;;;;;;;;;;22.60;30.70;;;;;;5089673;28;19935;-67
2022/02/25 01:25:43;;;;;;;;;;;22.70;30.70;;;;;;5090098;28;20420;-67
2022/02/25 01:28:10;;;;;;;;;;;22.70;30.70;;;;;;5089394;28;19924;-67
2022/02/25 01:30:39;;;;;;;;;;;22.70;30.70;;;;;;5089877;28;19979;-67
2022/02/25 01:33:06;;;;;;;;;;;22.60;30.70;;;;;;5070419;28;19955;-68
2022/02/25 01:35:35;;;;;;;;;;;22.70;30.70;;;;;;5088743;28;19924;-68
2022/02/25 01:38:02;;;;;;;;;;;22.70;30.70;;;;;;5088132;28;19924;-68
2022/02/25 01:40:29;;;;;;;;;;;22.70;30.70;;;;;;5089058;28;19923;-67
2022/02/25 01:42:56;;;;;;;;;;;22.70;30.70;;;;;;5089551;28;19969;-67
2022/02/25 01:45:23;;;;;;;;;;;22.70;30.70;;;;;;5089567;28;19924;-68
2022/02/25 01:47:50;;;;;;;;;;;22.70;30.70;;;;;;5088522;28;19947;-67
2022/02/25 01:50:17;;;;;;;;;;;22.70;30.80;;;;;;5089707;28;20331;-68
2022/02/25 01:53:01;;;;;;;;;;;22.70;30.80;;;;;;5089218;28;20331;-67
2022/02/25 01:55:29;;;;;;;;;;;22.70;30.80;;;;;;5071666;28;19928;-67
2022/02/25 01:57:56;;;;;;;;;;;22.70;30.80;;;;;;5089261;28;19990;-67
2022/02/25 02:00:24;;;;;;;;;;;22.60;30.80;;;;;;5088307;28;20596;-68
2022/02/25 02:02:51;;;;;;;;;;;22.70;30.80;;;;;;5089365;28;19924;-68
2022/02/25 02:05:19;;;;;;;;;;;22.60;30.80;;;;;;5087967;28;19982;-68
2022/02/25 02:07:46;;;;;;;;;;;22.60;30.70;;;;;;5089064;28;20361;-68
2022/02/25 02:10:13;;;;;;;;;;;22.70;30.80;;;;;;5088783;28;19932;-67
2022/02/25 02:12:40;;;;;;;;;;;22.70;30.80;;;;;;5089253;28;19994;-67
2022/02/25 02:15:08;;;;;;;;;;;22.70;30.80;;;;;;5071184;28;19924;-67
2022/02/25 02:17:36;;;;;;;;;;;22.70;30.80;;;;;;5088490;28;20388;-67
2022/02/25 02:20:04;;;;;;;;;;;22.70;30.80;;;;;;5088420;28;19932;-67
2022/02/25 02:22:31;;;;;;;;;;;22.60;30.70;;;;;;5088702;28;20366;-67
2022/02/25 02:24:59;;;;;;;;;;;22.60;30.70;;;;;;5071396;28;19928;-68
2022/02/25 02:30:14;;;;;;;;;;;22.60;30.80;;;;;;5087981;28;19928;-67
2022/02/25 02:32:41;;;;;;;;;;;22.60;30.70;;;;;;5069580;28;19932;-67
2022/02/25 02:35:09;;;;;;;;;;;22.60;30.80;;;;;;5089206;28;19974;-70
2022/02/25 02:37:36;;;;;;;;;;;22.60;30.80;;;;;;5087310;28;19928;-67
2022/02/25 02:40:03;;;;;;;;;;;22.60;30.80;;;;;;5088478;28;19980;-68
2022/02/25 02:42:30;;;;;;;;;;;22.60;30.80;;;;;;5088780;28;19997;-67
2022/02/25 02:44:57;;;;;;;;;;;22.60;30.80;;;;;;5088693;28;20335;-67
2022/02/25 02:47:24;;;;;;;;;;;22.60;30.80;;;;;;5087061;28;20207;-68
2022/02/25 02:49:51;;;;;;;;;;;22.60;30.80;;;;;;5088213;28;19928;-68
2022/02/25 02:52:19;;;;;;;;;;;22.60;30.80;;;;;;5087824;28;20329;-68
2022/02/25 02:54:46;;;;;;;;;;;22.60;30.80;;;;;;5088277;28;20526;-68
2022/02/25 02:57:13;;;;;;;;;;;22.50;30.80;;;;;;5088063;28;19958;-68
2022/02/25 02:59:40;;;;;;;;;;;22.50;30.80;;;;;;5088350;28;19928;-68
2022/02/25 03:02:07;;;;;;;;;;;22.50;30.80;;;;;;5087070;28;19970;-67
2022/02/25 03:04:35;;;;;;;;;;;22.50;30.80;;;;;;5087493;28;19928;-68
2022/02/25 03:07:02;;;;;;;;;;;22.50;30.80;;;;;;5087378;28;19977;-67
2022/02/25 03:09:29;;;;;;;;;;;22.50;30.80;;;;;;5087861;28;20406;-68
2022/02/25 03:11:56;;;;;;;;;;;22.50;30.80;;;;;;5087706;28;19924;-67
2022/02/25 03:14:23;;;;;;;;;;;22.50;30.80;;;;;;5088110;28;20347;-68
2022/02/25 03:16:50;;;;;;;;;;;22.50;30.80;;;;;;5087585;28;19930;-67
2022/02/25 03:19:17;;;;;;;;;;;22.50;30.80;;;;;;5088045;28;19978;-68
2022/02/25 03:21:44;;;;;;;;;;;22.50;30.80;;;;;;5087550;28;19931;-67
2022/02/25 03:24:11;;;;;;;;;;;22.50;30.90;;;;;;5069846;28;20006;-68
2022/02/25 03:26:38;;;;;;;;;;;22.50;30.90;;;;;;5087837;28;20344;-67
2022/02/25 03:29:05;;;;;;;;;;;22.50;30.90;;;;;;5069835;28;20369;-68
2022/02/25 03:31:32;;;;;;;;;;;22.50;30.90;;;;;;5087779;28;20002;-68
2022/02/25 03:33:59;;;;;;;;;;;22.50;30.90;;;;;;5087894;28;19962;-68
2022/02/25 03:36:26;;;;;;;;;;;22.50;30.90;;;;;;5069189;28;20428;-68
2022/02/25 03:38:53;;;;;;;;;;;22.50;30.90;;;;;;5088023;28;20021;-68
2022/02/25 03:41:21;;;;;;;;;;;22.50;30.90;;;;;;5087330;28;19924;-68
2022/02/25 03:43:48;;;;;;;;;;;22.40;30.90;;;;;;5086590;28;20406;-68
2022/02/25 03:46:15;;;;;;;;;;;22.50;30.90;;;;;;5087262;28;19955;-68
2022/02/25 03:48:42;;;;;;;;;;;22.50;30.90;;;;;;5087403;28;20105;-68
2022/02/25 03:51:09;;;;;;;;;;;22.50;30.90;;;;;;5085818;28;20420;-68
2022/02/25 03:53:49;;;;;;;;;;;22.50;30.90;;;;;;5087057;28;19924;-68
2022/02/25 03:56:16;;;;;;;;;;;22.50;30.90;;;;;;5087232;28;19924;-68
2022/02/25 03:58:43;;;;;;;;;;;22.50;30.90;;;;;;5087245;28;19990;-68
2022/02/25 04:01:11;;;;;;;;;;;22.50;30.90;;;;;;5088709;28;19998;-68
2022/02/25 04:03:38;;;;;;;;;;;22.50;30.90;;;;;;5090793;28;19932;-68
2022/02/25 04:06:05;;;;;;;;;;;22.50;30.90;;;;;;5090075;28;20285;-68
2022/02/25 04:08:33;;;;;;;;;;;22.50;30.90;;;;;;5091326;28;20197;-68
2022/02/25 04:11:00;;;;;;;;;;;22.50;30.90;;;;;;5091237;28;19951;-68
2022/02/25 04:13:27;;;;;;;;;;;22.50;30.90;;;;;;5091271;28;19932;-68
2022/02/25 04:15:54;;;;;;;;;;;22.50;30.90;;;;;;5091279;28;19924;-68
2022/02/25 04:18:22;;;;;;;;;;;22.50;30.90;;;;;;5090040;28;19924;-68
2022/02/25 04:20:49;;;;;;;;;;;22.40;30.90;;;;;;5091536;28;19924;-68
2022/02/25 04:23:16;;;;;;;;;;;22.40;30.80;;;;;;5090665;28;19924;-68
2022/02/25 04:25:43;;;;;;;;;;;22.40;30.90;;;;;;5091027;28;20699;-68
2022/02/25 04:28:10;;;;;;;;;;;22.40;30.90;;;;;;5091306;28;19927;-68
2022/02/25 04:30:37;;;;;;;;;;;22.40;30.90;;;;;;5090542;28;20212;-67
2022/02/25 04:33:04;;;;;;;;;;;22.40;30.90;;;;;;5090373;28;19932;-68
2022/02/25 04:35:33;;;;;;;;;;;22.40;30.90;;;;;;5090112;28;20077;-68
2022/02/25 04:38:00;;;;;;;;;;;22.40;30.90;;;;;;5090577;28;19928;-68
2022/02/25 04:40:27;;;;;;;;;;;22.40;30.90;;;;;;5091332;28;19929;-67
2022/02/25 04:42:55;;;;;;;;;;;22.40;30.90;;;;;;5090642;28;19950;-68
2022/02/25 04:45:22;;;;;;;;;;;22.40;31.00;;;;;;5091176;28;20339;-68
2022/02/25 04:47:49;;;;;;;;;;;22.40;31.00;;;;;;5089908;28;19928;-67
2022/02/25 04:50:16;;;;;;;;;;;22.40;31.00;;;;;;5090423;28;19924;-67
2022/02/25 04:52:44;;;;;;;;;;;22.40;31.00;;;;;;5090099;28;19935;-68
2022/02/25 04:55:11;;;;;;;;;;;22.40;31.00;;;;;;5090405;28;19985;-67
2022/02/25 04:57:39;;;;;;;;;;;22.40;31.00;;;;;;5090256;28;20366;-68
2022/02/25 05:00:10;;;;;;;;;;;22.40;31.00;;;;;;5090930;28;20045;-68
2022/02/25 05:02:46;;;;;;;;;;;22.40;31.00;;;;;;5089052;28;20022;-68
2022/02/25 05:05:13;;;;;;;;;;;22.40;31.00;;;;;;5090493;28;19928;-67
2022/02/25 05:07:41;;;;;;;;;;;22.30;31.00;;;;;;5089202;28;19932;-68
2022/02/25 05:10:08;;;;;;;;;;;22.30;31.00;;;;;;5071980;28;19924;-68
2022/02/25 05:12:35;;;;;;;;;;;22.30;31.00;;;;;;5089271;28;20029;-68
2022/02/25 05:20:37;;;;;;;;;;;22.30;31.00;;;;;;5089505;28;20466;-67
2022/02/25 05:23:04;;;;;;;;;;;22.30;31.00;;;;;;5089850;28;19931;-67
2022/02/25 05:25:31;;;;;;;;;;;22.30;31.00;;;;;;5090466;28;20208;-67
2022/02/25 05:27:58;;;;;;;;;;;22.30;31.00;;;;;;5089712;28;20385;-67
2022/02/25 05:30:26;;;;;;;;;;;22.30;31.00;;;;;;5090320;28;19981;-68
2022/02/25 05:32:54;;;;;;;;;;;22.30;31.00;;;;;;5088947;28;19924;-67
2022/02/25 05:35:21;;;;;;;;;;;22.30;31.10;;;;;;5088507;28;20407;-68
2022/02/25 05:37:49;;;;;;;;;;;22.30;31.60;;;;;;5071665;28;19931;-67
2022/02/25 05:40:17;;;;;;;;;;;22.30;31.00;;;;;;5087247;28;19924;-67
2022/02/25 05:42:45;;;;;;;;;;;22.30;31.00;;;;;;5081328;28;19931;-67
2022/02/25 05:45:12;;;;;;;;;;;22.30;31.00;;;;;;5078030;28;19986;-67
2022/02/25 05:47:39;;;;;;;;;;;22.30;31.00;;;;;;5086902;28;19935;-68
2022/02/25 05:50:08;;;;;;;;;;;22.30;31.00;;;;;;5075634;28;19962;-67
2022/02/25 05:52:36;;;;;;;;;;;22.30;31.00;;;;;;5075747;28;20512;-67
2022/02/25 05:55:03;;;;;;;;;;;22.30;31.00;;;;;;5073448;28;19925;-67
2022/02/25 05:57:30;;;;;;;;;;;22.40;31.10;;;;;;5083861;28;19935;-67
2022/02/25 05:59:57;;;;;;;;;;;22.30;30.90;;;;;;5087171;28;20316;-68
2022/02/25 06:02:24;;;;;;;;;;;22.30;30.90;;;;;;5080203;28;19936;-67
2022/02/25 06:04:51;;;;;;;;;;;22.40;31.00;;;;;;5080643;28;19985;-67
2022/02/25 06:07:18;;;;;;;;;;;22.40;30.80;;;;;;5081517;28;19931;-67
2022/02/25 06:09:45;;;;;;;;;;;22.40;30.70;;;;;;5082683;28;19947;-66
2022/02/25 06:12:12;;;;;;;;;;;22.40;30.40;;;;;;5081879;28;19989;-66
2022/02/25 06:14:39;;;;;;;;;;;22.30;30.30;;;;;;5085428;28;19951;-66
2022/02/25 06:17:06;;;;;;;;;;;22.30;30.20;;;;;;5062849;28;19928;-66
2022/02/25 06:19:33;;;;;;;;;;;22.30;30.20;;;;;;5075194;28;20439;-65
2022/02/25 06:22:00;;;;;;;;;;;22.30;30.20;;;;;;5081108;28;19933;-66
2022/02/25 06:24:28;;;;;;;;;;;22.30;30.20;;;;;;5059860;28;19943;-66
2022/02/25 06:26:55;;;;;;;;;;;22.30;30.30;;;;;;5082937;28;19932;-67
2022/02/25 06:29:22;;;;;;;;;;;22.30;30.20;;;;;;5085469;28;19931;-66
2022/02/25 06:31:50;;;;;;;;;;;22.40;30.10;;;;;;5081973;28;20017;-66
2022/02/25 06:34:17;;;;;;;;;;;22.40;30.00;;;;;;5078942;28;20404;-67
2022/02/25 06:36:45;;;;;;;;;;;22.50;30.00;;;;;;5081173;28;19938;-64
2022/02/25 06:39:12;;;;;;;;;;;22.60;30.00;;;;;;5081416;28;19977;-65
2022/02/25 06:41:39;;;;;;;;;;;22.60;30.00;;;;;;5075130;28;19932;-64
2022/02/25 06:44:06;;;;;;;;;;;22.70;30.00;;;;;;5076582;28;19962;-64
2022/02/25 06:46:34;;;;;;;;;;;22.70;29.90;;;;;;5090983;28;19924;-64
2022/02/25 06:55:17;;;;;;;;;;;22.90;29.50;;;;;;5089539;28;20324;-66
2022/02/25 06:58:00;;;;;;;;;;;23.00;29.70;;;;;;5090595;28;19962;-67
2022/02/25 07:00:27;;;;;;;;;;;23.10;29.80;;;;;;5087431;28;20435;-66
2022/02/25 07:02:55;;;;;;;;;;;23.10;29.90;;;;;;5090089;28;19925;-66
2022/02/25 07:05:22;;;;;;;;;;;23.20;30.00;;;;;;5070501;28;19932;-63
2022/02/25 07:07:49;;;;;;;;;;;23.30;30.10;;;;;;5080329;28;19932;-66
2022/02/25 07:10:17;;;;;;;;;;;23.30;30.00;;;;;;5078909;28;20495;-67
2022/02/25 07:12:44;;;;;;;;;;;23.40;30.00;;;;;;5073346;28;19955;-70
2022/02/25 07:15:12;;;;;;;;;;;23.50;30.00;;;;;;5072672;28;19924;-68
2022/02/25 07:17:39;;;;;;;;;;;23.50;30.00;;;;;;5076392;28;19932;-66
2022/02/25 07:20:07;;;;;;;;;;;23.50;30.00;;;;;;5081381;28;19928;-67
2022/02/25 07:22:47;;;;;;;;;;;23.50;30.00;;;;;;5076579;28;19928;-66
2022/02/25 07:25:18;;;;;;;;;;;23.60;30.10;;;;;;5075918;28;19939;-69
2022/02/25 07:27:46;;;;;;;;;;;23.60;30.00;;;;;;5069733;28;19936;-67
2022/02/25 07:30:13;;;;;;;;;;;23.60;30.00;;;;;;5079746;28;19928;-66
2022/02/25 07:32:41;;;;;;;;;;;23.60;30.00;;;;;;5095720;28;19939;-73
2022/02/25 07:35:09;;;;;;;;;;;23.60;29.90;;;;;;5070358;28;19939;-69
2022/02/25 07:37:36;;;;;;;;;;;23.70;29.90;;;;;;5064970;28;19928;-71
2022/02/25 07:40:04;;;;;;;;;;;23.80;29.90;;;;;;5085044;28;19924;-69
2022/02/25 07:42:31;;;;;;;;;;;23.80;29.80;;;;;;5083564;28;19924;-71
2022/02/25 07:44:58;;;;;;;;;;;23.80;29.70;;;;;;5083791;28;19924;-72
2022/02/25 07:47:26;;;;;;;;;;;23.80;29.80;;;;;;5077003;28;19928;-76
2022/02/25 07:53:16;;;;;;;;;;;23.90;29.80;;;;;;5084937;28;19927;-73
2022/02/25 07:55:44;;;;;;;;;;;23.90;29.70;;;;;;5084787;28;19939;-67
2022/02/25 07:58:12;;;;;;;;;;;24.00;29.90;;;;;;5083096;28;20299;-67
2022/02/25 08:00:39;;;;;;;;;;;24.00;29.80;;;;;;5087451;28;19924;-67
2022/02/25 08:03:07;;;;;;;;;;;24.10;29.70;;;;;;5087298;28;19950;-71
2022/02/25 08:05:35;;;;;;;;;;;24.10;29.70;;;;;;5082608;28;20246;-71
2022/02/25 08:08:03;;;;;;;;;;;24.10;29.60;;;;;;5083491;28;19928;-68
2022/02/25 08:10:32;;;;;;;;;;;24.20;29.50;;;;;;5085923;28;19950;-65
2022/02/25 08:13:00;;;;;;;;;;;24.20;29.50;;;;;;5085760;28;20260;-66
2022/02/25 08:15:33;;;;;;;;;;;24.20;29.90;;;;;;5085051;28;19977;-73
2022/02/25 08:18:06;;;;;;;;;;;24.20;29.50;;;;;;5075972;28;19963;-70
2022/02/25 08:20:34;;;;;;;;;;;24.30;29.50;;;;;;5086651;28;19928;-70
2022/02/25 08:23:02;;;;;;;;;;;24.30;29.60;;;;;;5089330;28;19947;-64
2022/02/25 08:25:33;;;;;;;;;;;24.30;29.50;;;;;;5068596;28;20374;-63
2022/02/25 08:28:01;;;;;;;;;;;24.30;29.50;;;;;;5077063;28;20385;-63
2022/02/25 08:30:28;;;;;;;;;;;24.30;29.50;;;;;;5086868;28;19931;-63
2022/02/25 08:33:00;;;;;;;;;;;24.30;29.60;;;;;;5070501;28;19924;-61
2022/02/25 08:35:31;;;;;;;;;;;24.30;29.60;;;;;;5088945;28;19924;-60
2022/02/25 08:37:59;;;;;;;;;;;24.30;29.60;;;;;;5082706;28;19925;-59
2022/02/25 08:40:26;;;;;;;;;;;24.40;29.50;;;;;;5070520;28;19924;-60
2022/02/25 08:42:54;;;;;;;;;;;24.40;29.50;;;;;;5066007;28;19974;-63
2022/02/25 08:45:21;;;;;;;;;;;24.40;29.50;;;;;;5067606;28;19964;-65
2022/02/25 08:47:49;;;;;;;;;;;24.40;29.50;;;;;;5070711;28;19982;-65
2022/02/25 08:50:17;;;;;;;;;;;24.40;29.60;;;;;;5074606;28;19970;-64
2022/02/25 08:52:46;;;;;;;;;;;24.50;29.50;;;;;;5071975;28;19952;-65
2022/02/25 08:55:13;;;;;;;;;;;24.40;29.30;;;;;;5071430;28;19975;-68
2022/02/25 08:57:42;;;;;;;;;;;24.50;29.30;;;;;;5072500;28;19935;-66
2022/02/25 09:00:12;;;;;;;;;;;24.50;29.30;;;;;;5080200;28;20026;-65
2022/02/25 09:02:41;;;;;;;;;;;24.50;29.30;;;;;;5086148;28;19932;-64
2022/02/25 09:05:09;;;;;;;;;;;24.50;29.30;;;;;;5088187;28;20311;-66
2022/02/25 09:07:36;;;;;;;;;;;24.50;29.20;;;;;;5085974;28;19924;-65
2022/02/25 09:10:04;;;;;;;;;;;24.60;29.10;;;;;;5088926;28;20395;-63
2022/02/25 09:12:32;;;;;;;;;;;24.60;29.10;;;;;;5065267;28;20944;-63
2022/02/25 09:14:59;;;;;;;;;;;24.60;29.10;;;;;;5087594;28;19925;-66
2022/02/25 09:17:26;;;;;;;;;;;24.70;29.10;;;;;;5092510;28;19928;-67
2022/02/25 09:22:58;;;;;;;;;;;24.80;28.90;;;;;;5083865;28;20383;-67
2022/02/25 09:25:26;;;;;;;;;;;24.80;28.80;;;;;;5106549;28;20000;-65
2022/02/25 09:27:53;;;;;;;;;;;24.80;28.50;;;;;;5103373;28;19969;-67
2022/02/25 09:30:20;;;;;;;;;;;24.90;28.60;;;;;;5089503;28;19928;-68
2022/02/25 09:32:48;;;;;;;;;;;24.90;28.40;;;;;;5083035;28;19928;-64
2022/02/25 09:35:16;;;;;;;;;;;24.90;28.50;;;;;;5073987;28;19951;-65
2022/02/25 09:37:43;;;;;;;;;;;25.00;28.40;;;;;;5072191;28;19924;-64
2022/02/25 09:40:12;;;;;;;;;;;25.00;28.40;;;;;;5072989;28;20377;-63
2022/02/25 09:42:40;;;;;;;;;;;25.10;28.50;;;;;;5086437;28;19989;-64
2022/02/25 09:48:29;;;;;;;;;;;25.10;28.20;;;;;;5076394;28;19918;-65
2022/02/25 09:50:56;;;;;;;;;;;25.30;28.40;;;;;;5089958;28;19924;-66
2022/02/25 09:53:24;;;;;;;;;;;25.30;28.30;;;;;;5081145;28;19928;-67
2022/02/25 09:55:53;;;;;;;;;;;25.30;28.30;;;;;;5090944;28;19924;-69
2022/02/25 09:58:21;;;;;;;;;;;25.40;28.20;;;;;;5090394;28;19924;-70
2022/02/25 10:00:51;;;;;;;;;;;25.40;28.10;;;;;;5088790;28;19924;-67
2022/02/25 10:03:20;;;;;;;;;;;25.40;28.10;;;;;;5078280;28;19970;-65
2022/02/25 10:05:48;;;;;;;;;;;25.50;27.90;;;;;;5089969;28;19993;-64
2022/02/25 10:08:16;;;;;;;;;;;25.40;27.90;;;;;;5089964;28;20010;-67
2022/02/25 10:10:49;;;;;;;;;;;25.50;27.80;;;;;;5073034;28;19925;-69
2022/02/25 10:13:20;;;;;;;;;;;25.50;27.90;;;;;;5068255;28;19924;-69
2022/02/25 10:15:48;;;;;;;;;;;25.50;28.00;;;;;;5109899;28;19932;-68
2022/02/25 10:18:23;;;;;;;;;;;25.60;28.10;;;;;;5111277;28;19930;-68
2022/02/25 10:20:59;;;;;;;;;;;25.70;28.20;;;;;;5111561;28;19943;-68
2022/02/25 10:23:28;;;;;;;;;;;25.70;28.10;;;;;;5096099;28;19924;-69
2022/02/25 10:26:05;;;;;;;;;;;25.70;28.00;;;;;;5091338;28;19985;-69
2022/02/25 10:28:34;;;;;;;;;;;25.70;27.80;;;;;;5089965;28;20381;-68
2022/02/25 10:31:18;;;;;;;;;;;25.80;27.60;;;;;;5091135;28;19977;-63
2022/02/25 10:33:57;;;;;;;;;;;25.80;27.70;;;;;;5093733;28;19932;-71
2022/02/25 10:36:28;;;;;;;;;;;25.90;27.50;;;;;;5110535;28;19928;-62
2022/02/25 10:38:58;;;;;;;;;;;25.90;27.50;;;;;;5110503;28;20446;-65
2022/02/25 10:41:25;;;;;;;;;;;26.00;27.60;;;;;;5110834;28;19927;-63
2022/02/25 10:43:52;;;;;;;;;;;26.00;27.70;;;;;;5106802;28;20408;-64
2022/02/25 10:46:22;;;;;;;;;;;26.10;27.30;;;;;;5110629;28;20327;-70
2022/02/25 10:48:49;;;;;;;;;;;26.10;27.40;;;;;;5110687;28;19924;-65
2022/02/25 10:51:23;;;;;;;;;;;26.20;27.40;;;;;;5111133;28;19924;-68
2022/02/25 10:53:51;;;;;;;;;;;26.20;27.10;;;;;;5111347;28;20057;-68
2022/02/25 10:56:19;;;;;;;;;;;26.20;27.30;;;;;;5069881;28;19924;-68
2022/02/25 10:58:52;;;;;;;;;;;26.30;27.30;;;;;;5085939;28;19924;-66
2022/02/25 11:01:35;;;;;;;;;;;26.30;27.30;;;;;;5086337;28;19932;-66
2022/02/25 11:07:07;;;;;;;;;;;26.40;27.00;;;;;;5089285;28;20383;-67
2022/02/25 11:09:34;;;;;;;;;;;26.50;26.80;;;;;;5076498;28;20462;-66
2022/02/25 11:12:02;;;;;;;;;;;26.50;26.80;;;;;;5077848;28;19928;-66
2022/02/25 11:14:33;;;;;;;;;;;26.50;26.60;;;;;;5088743;28;19928;-70
2022/02/25 11:17:00;;;;;;;;;;;26.50;26.40;;;;;;5092903;28;19924;-65
2022/02/25 11:19:28;;;;;;;;;;;26.50;26.70;;;;;;5085139;28;19924;-64
2022/02/25 11:21:57;;;;;;;;;;;26.50;26.30;;;;;;5089572;28;20000;-64
2022/02/25 11:24:25;;;;;;;;;;;26.60;26.30;;;;;;5089101;28;19932;-64
2022/02/25 11:27:13;;;;;;;;;;;26.60;26.20;;;;;;5085029;28;19949;-64
2022/02/25 11:30:01;;;;;;;;;;;26.60;26.10;;;;;;5086275;28;19924;-65
2022/02/25 11:32:42;;;;;;;;;;;26.60;26.00;;;;;;5090511;28;20346;-65
2022/02/25 11:35:22;;;;;;;;;;;26.60;26.00;;;;;;5090533;28;19924;-66
2022/02/25 11:37:51;;;;;;;;;;;26.70;26.10;;;;;;5083549;28;20011;-64
2022/02/25 11:40:40;;;;;;;;;;;26.70;26.10;;;;;;5103862;28;19930;-64
2022/02/25 11:43:08;;;;;;;;;;;26.60;24.80;;;;;;5109827;28;19924;-65
2022/02/25 11:45:47;;;;;;;;;;;26.40;23.50;;;;;;5110065;28;19924;-62
2022/02/25 11:48:17;;;;;;;;;;;26.20;24.20;;;;;;5080836;28;20022;-63
2022/02/25 11:50:48;;;;;;;;;;;26.10;24.80;;;;;;5088987;28;19924;-64
2022/02/25 11:53:26;;;;;;;;;;;26.10;25.20;;;;;;5089927;28;20018;-63
2022/02/25 11:55:53;;;;;;;;;;;26.10;25.90;;;;;;5087670;28;19931;-63
2022/02/25 11:58:40;;;;;;;;;;;26.20;26.50;;;;;;5081431;28;20426;-63
2022/02/25 12:01:08;;;;;;;;;;;26.20;25.80;;;;;;5068292;28;19925;-63
2022/02/25 12:03:55;;;;;;;;;;;26.30;26.00;;;;;;5066328;28;19925;-64
2022/02/25 12:06:26;;;;;;;;;;;26.40;26.10;;;;;;5066124;28;20378;-67
2022/02/25 12:08:57;;;;;;;;;;;26.40;26.20;;;;;;5076604;28;19976;-69
2022/02/25 12:11:30;;;;;;;;;;;26.50;26.50;;;;;;5070857;28;20340;-65
2022/02/25 12:13:57;;;;;;;;;;;26.50;26.60;;;;;;5089300;28;20418;-67
2022/02/25 12:16:25;;;;;;;;;;;26.50;26.40;;;;;;5087989;28;19924;-68
2022/02/25 12:19:04;;;;;;;;;;;26.60;26.30;;;;;;5085549;28;19930;-66
2022/02/25 12:21:39;;;;;;;;;;;26.60;26.80;;;;;;5090282;28;19928;-63
2022/02/25 12:24:10;;;;;;;;;;;26.60;26.50;;;;;;5092537;28;19978;-70
2022/02/25 12:26:38;;;;;;;;;;;26.70;26.50;;;;;;5093797;28;20005;-69
2022/02/25 12:29:13;;;;;;;;;;;26.70;26.60;;;;;;5092754;28;19977;-69
2022/02/25 12:31:42;;;;;;;;;;;26.70;26.30;;;;;;5083218;28;20580;-65
2022/02/25 12:37:41;;;;;;;;;;;26.70;26.40;;;;;;5085427;28;19920;-65
2022/02/25 12:40:10;;;;;;;;;;;26.70;26.20;;;;;;5060057;28;19924;-66
2022/02/25 12:42:37;;;;;;;;;;;26.70;26.20;;;;;;5083704;28;19936;-67
2022/02/25 12:45:04;;;;;;;;;;;26.70;26.10;;;;;;5089883;28;19932;-69
2022/02/25 12:47:33;;;;;;;;;;;26.70;26.10;;;;;;5085218;28;19928;-67
2022/02/25 12:50:03;;;;;;;;;;;26.70;26.50;;;;;;5089433;28;19978;-66
2022/02/25 12:52:30;;;;;;;;;;;26.70;26.50;;;;;;5083062;28;19932;-68
2022/02/25 12:54:57;;;;;;;;;;;26.70;26.40;;;;;;5085961;28;19928;-72
2022/02/25 12:57:24;;;;;;;;;;;26.80;26.40;;;;;;5107933;28;19924;-67
2022/02/25 12:59:53;;;;;;;;;;;26.70;26.50;;;;;;5102416;28;19969;-68
2022/02/25 13:02:22;;;;;;;;;;;26.70;26.60;;;;;;5091624;28;19924;-79
2022/02/25 13:04:50;;;;;;;;;;;26.70;27.20;;;;;;5086295;28;20126;-68
2022/02/25 13:07:20;;;;;;;;;;;26.70;27.10;;;;;;5091350;28;19978;-65
2022/02/25 13:09:47;;;;;;;;;;;26.70;26.90;;;;;;5079219;28;19932;-71
2022/02/25 13:12:16;;;;;;;;;;;26.70;27.00;;;;;;5078937;28;19935;-68
2022/02/25 13:14:46;;;;;;;;;;;26.70;26.50;;;;;;5070298;28;19931;-70
2022/02/25 13:17:15;;;;;;;;;;;26.70;26.10;;;;;;5093350;28;19931;-69
2022/02/25 13:19:43;;;;;;;;;;;26.60;25.70;;;;;;5088766;28;19924;-69
2022/02/25 13:22:15;;;;;;;;;;;26.60;25.90;;;;;;5089042;28;19927;-73
2022/02/25 13:24:55;;;;;;;;;;;26.50;25.90;;;;;;5078533;28;20015;-67
2022/02/25 13:27:41;;;;;;;;;;;26.50;25.70;;;;;;5060281;28;19961;-71
2022/02/25 13:30:23;;;;;;;;;;;26.50;25.50;;;;;;5090615;28;19924;-68
2022/02/25 13:32:53;;;;;;;;;;;26.50;25.40;;;;;;5086310;28;19986;-71
2022/02/25 13:35:22;;;;;;;;;;;26.40;25.60;;;;;;5090941;28;20330;-72
2022/02/25 13:37:56;;;;;;;;;;;26.30;25.50;;;;;;5083923;28;20356;-71
2022/02/25 13:40:24;;;;;;;;;;;26.30;25.50;;;;;;5088635;28;19924;-68
2022/02/25 13:42:51;;;;;;;;;;;26.30;25.50;;;;;;5083285;28;20775;-67
2022/02/25 13:45:32;;;;;;;;;;;26.20;25.60;;;;;;5091389;28;19927;-67
2022/02/25 13:54:14;;;;;;;;;;;26.10;27.30;;;;;;5084940;28;20018;-74
2022/02/25 13:56:46;;;;;;;;;;;26.00;27.50;;;;;;5086348;28;19924;-69
2022/02/25 14:02:50;;;;;;;;;;;26.00;26.60;;;;;;5087209;28;20293;-68
2022/02/25 14:05:19;;;;;;;;;;;25.90;26.40;;;;;;5090943;28;19948;-72
2022/02/25 14:07:48;;;;;;;;;;;25.90;26.90;;;;;;5088270;28;19979;-69
2022/02/25 14:10:29;;;;;;;;;;;25.80;26.90;;;;;;5089432;28;20000;-72
2022/02/25 14:12:59;;;;;;;;;;;25.80;26.70;;;;;;5094520;28;19970;-71
2022/02/25 14:15:27;;;;;;;;;;;25.80;26.30;;;;;;5111013;28;19927;-75
2022/02/25 14:17:55;;;;;;;;;;;25.70;26.20;;;;;;5103106;28;20424;-74
2022/02/25 14:20:25;;;;;;;;;;;25.70;26.40;;;;;;5090295;28;19928;-74
2022/02/25 14:22:58;;;;;;;;;;;25.70;26.30;;;;;;5089947;28;20144;-74
2022/02/25 14:25:36;;;;;;;;;;;25.70;26.00;;;;;;5091165;28;20445;-73
2022/02/25 14:28:07;;;;;;;;;;;25.70;26.10;;;;;;5092177;28;20067;-73
2022/02/25 14:30:41;;;;;;;;;;;25.60;26.00;;;;;;5091176;28;19924;-73
2022/02/25 14:33:11;;;;;;;;;;;25.70;25.70;;;;;;5093117;28;19923;-74
2022/02/25 14:35:40;;;;;;;;;;;25.60;25.70;;;;;;5111883;28;19923;-74
2022/02/25 14:38:07;;;;;;;;;;;25.60;25.60;;;;;;5100252;28;20389;-73
2022/02/25 14:40:35;;;;;;;;;;;25.70;25.80;;;;;;5091627;28;20273;-73
2022/02/25 14:43:02;;;;;;;;;;;25.70;25.50;;;;;;5096546;28;19923;-73
2022/02/25 14:45:29;;;;;;;;;;;25.70;25.40;;;;;;5110047;28;19969;-73
2022/02/25 14:47:58;;;;;;;;;;;25.70;25.40;;;;;;5101810;28;19969;-73
2022/02/25 14:50:26;;;;;;;;;;;25.60;25.30;;;;;;5090929;28;19928;-74
2022/02/25 14:52:53;;;;;;;;;;;25.60;25.30;;;;;;5088737;28;19925;-73
2022/02/25 15:02:27;;;;;;;;;;;25.50;25.30;;;;;;5088789;28;19926;-73
2022/02/25 15:04:55;;;;;;;;;;;25.40;25.00;;;;;;5089231;28;20372;-73
2022/02/25 15:07:22;;;;;;;;;;;25.40;25.50;;;;;;5092382;28;20122;-73
2022/02/25 15:09:49;;;;;;;;;;;25.40;25.20;;;;;;5085901;28;19927;-73
2022/02/25 15:12:19;;;;;;;;;;;25.30;25.20;;;;;;5048394;28;19936;-68
2022/02/25 15:18:17;;;;;;;;;;;25.20;25.30;;;;;;5074872;28;20375;-71